createdAt,value
2022-09-23T00:00:46.726Z,94.30
2022-09-23T00:03:14.606Z,94.20
2022-09-23T00:05:41.587Z,94.00
2022-09-23T00:08:10.907Z,94.20
2022-09-23T00:10:39.362Z,94.50
2022-09-23T00:13:06.484Z,94.60
2022-09-23T00:15:38.670Z,94.80
2022-09-23T00:18:05.495Z,95.00
2022-09-23T00:20:35.112Z,95.00
2022-09-23T00:23:02.244Z,94.90
2022-09-23T00:25:29.659Z,94.80
2022-09-23T00:27:57.020Z,95.20
2022-09-23T00:30:23.676Z,94.90
2022-09-23T00:32:50.416Z,95.00
2022-09-23T00:35:18.026Z,95.20
2022-09-23T00:37:44.614Z,94.90
2022-09-23T00:40:13.038Z,94.60
2022-09-23T00:42:46.751Z,94.30
2022-09-23T00:45:13.549Z,94.60
2022-09-23T00:47:45.119Z,94.30
2022-09-23T00:50:36.314Z,94.50
2022-09-23T00:53:07.428Z,93.80
2022-09-23T00:55:42.006Z,94.10
2022-09-23T00:58:12.461Z,94.10
2022-09-23T01:00:39.037Z,94.30
2022-09-23T01:03:06.925Z,94.60
2022-09-23T01:05:34.405Z,94.60
2022-09-23T01:08:03.192Z,94.00
2022-09-23T01:10:41.963Z,93.90
2022-09-23T01:13:15.878Z,94.30
2022-09-23T01:15:49.618Z,94.60
2022-09-23T01:18:43.349Z,93.80
2022-09-23T01:21:23.046Z,94.00
2022-09-23T01:24:30.841Z,94.30
2022-09-23T01:27:06.167Z,94.00
2022-09-23T01:30:06.339Z,93.80
2022-09-23T01:33:04.536Z,93.60
2022-09-23T01:35:54.040Z,93.80
2022-09-23T01:38:54.444Z,93.70
2022-09-23T01:41:26.628Z,93.70
2022-09-23T01:44:22.789Z,93.70
2022-09-23T01:47:10.811Z,93.60
2022-09-23T01:49:42.020Z,93.80
2022-09-23T01:52:22.563Z,93.20
2022-09-23T01:55:10.735Z,93.50
2022-09-23T01:57:42.848Z,93.70
2022-09-23T02:00:15.613Z,93.90
2022-09-23T02:02:49.345Z,93.40
2022-09-23T02:05:24.207Z,93.50
2022-09-23T02:07:53.640Z,93.70
2022-09-23T02:10:31.801Z,93.60
2022-09-23T02:13:05.323Z,93.50
2022-09-23T02:15:37.335Z,93.30
2022-09-23T02:18:13.609Z,93.30
2022-09-23T02:20:40.566Z,93.70
2022-09-23T02:23:17.717Z,94.00
2022-09-23T02:26:07.597Z,93.90
2022-09-23T02:28:49.077Z,94.10
2022-09-23T02:31:24.715Z,93.90
2022-09-23T02:34:02.421Z,93.60
2022-09-23T02:36:56.011Z,93.90
2022-09-23T02:39:32.791Z,94.10
2022-09-23T02:42:06.676Z,93.90
2022-09-23T02:44:33.627Z,94.00
2022-09-23T02:47:01.027Z,93.90
2022-09-23T02:49:29.724Z,94.10
2022-09-23T02:51:59.815Z,94.10
2022-09-23T02:54:29.166Z,94.00
2022-09-23T02:56:57.226Z,94.30
2022-09-23T02:59:24.129Z,93.80
2022-09-23T03:02:14.308Z,94.30
2022-09-23T03:04:50.293Z,94.10
2022-09-23T03:07:21.576Z,94.00
2022-09-23T03:09:59.494Z,94.10
2022-09-23T03:12:39.836Z,94.50
2022-09-23T03:15:17.940Z,94.30
2022-09-23T03:17:55.517Z,94.30
2022-09-23T03:20:34.121Z,94.20
2022-09-23T03:23:07.668Z,94.30
2022-09-23T03:25:39.157Z,94.30
2022-09-23T03:28:08.105Z,94.40
2022-09-23T03:30:36.391Z,94.40
2022-09-23T03:33:09.122Z,94.30
2022-09-23T03:36:01.695Z,94.60
2022-09-23T03:38:34.211Z,94.40
2022-09-23T03:41:04.042Z,94.20
2022-09-23T03:43:31.469Z,94.50
2022-09-23T03:45:59.358Z,94.30
2022-09-23T03:48:26.042Z,94.60
2022-09-23T03:50:52.750Z,94.60
2022-09-23T03:53:21.059Z,94.70
2022-09-23T03:55:48.147Z,94.50
2022-09-23T03:58:15.500Z,94.50
2022-09-23T04:00:43.351Z,94.80
2022-09-23T04:03:11.965Z,94.30
2022-09-23T04:05:38.796Z,94.30
2022-09-23T04:08:05.592Z,94.40
2022-09-23T04:10:32.259Z,94.60
2022-09-23T04:12:58.907Z,94.50
2022-09-23T04:15:25.495Z,94.60
2022-09-23T04:17:52.092Z,94.60
2022-09-23T04:20:19.145Z,94.70
2022-09-23T04:22:45.807Z,94.70
2022-09-23T04:25:12.410Z,94.80
2022-09-23T04:27:39.106Z,94.90
2022-09-23T04:30:06.866Z,94.60
2022-09-23T04:32:33.447Z,94.50
2022-09-23T04:35:00.025Z,94.60
2022-09-23T04:37:26.636Z,95.10
2022-09-23T04:39:53.679Z,95.10
2022-09-23T04:42:20.252Z,94.90
2022-09-23T04:44:46.819Z,95.10
2022-09-23T04:47:13.694Z,95.20
2022-09-23T04:49:40.773Z,95.10
2022-09-23T04:52:07.412Z,94.90
2022-09-23T04:54:33.989Z,95.10
2022-09-23T04:57:00.707Z,95.30
2022-09-23T04:59:27.321Z,95.90
2022-09-23T05:01:55.238Z,95.00
2022-09-23T05:04:22.718Z,95.00
2022-09-23T05:06:49.291Z,95.10
2022-09-23T05:09:17.251Z,95.10
2022-09-23T05:11:44.931Z,95.00
2022-09-23T05:14:11.752Z,95.30
2022-09-23T05:16:38.386Z,95.20
2022-09-23T05:19:05.399Z,95.20
2022-09-23T05:21:32.703Z,95.60
2022-09-23T05:24:00.546Z,95.10
2022-09-23T05:26:30.203Z,95.40
2022-09-23T05:28:58.388Z,95.40
2022-09-23T05:31:27.513Z,95.40
2022-09-23T05:33:59.977Z,95.40
2022-09-23T05:36:28.447Z,95.60
2022-09-23T05:38:56.451Z,95.80
2022-09-23T05:41:23.647Z,95.80
2022-09-23T05:43:51.791Z,96.10
2022-09-23T05:46:21.262Z,95.50
2022-09-23T05:48:48.030Z,95.90
2022-09-23T05:51:20.121Z,95.60
2022-09-23T05:53:47.776Z,95.80
2022-09-23T05:56:19.521Z,95.90
2022-09-23T05:58:49.219Z,95.80
2022-09-23T06:01:20.934Z,95.60
2022-09-23T06:03:48.984Z,95.50
2022-09-23T06:06:20.064Z,95.50
2022-09-23T06:08:47.735Z,95.40
2022-09-23T06:11:15.009Z,95.20
2022-09-23T06:13:42.188Z,94.50
2022-09-23T06:16:11.459Z,94.90
2022-09-23T06:18:39.331Z,94.40
2022-09-23T06:21:06.804Z,94.50
2022-09-23T06:23:35.742Z,94.20
2022-09-23T06:26:06.913Z,94.30
2022-09-23T06:28:35.465Z,94.30
2022-09-23T06:31:08.537Z,94.00
2022-09-23T06:33:37.699Z,94.00
2022-09-23T06:36:06.172Z,93.80
2022-09-23T06:38:36.059Z,93.60
2022-09-23T06:41:03.339Z,93.50
2022-09-23T06:43:30.863Z,93.10
2022-09-23T06:45:59.775Z,93.70
2022-09-23T06:48:27.749Z,93.60
2022-09-23T06:50:57.957Z,93.20
2022-09-23T06:53:25.272Z,93.10
2022-09-23T06:56:06.471Z,93.10
2022-09-23T06:58:35.365Z,92.90
2022-09-23T07:01:07.969Z,92.60
2022-09-23T07:03:35.379Z,92.70
2022-09-23T07:06:02.762Z,92.70
2022-09-23T07:08:31.778Z,92.60
2022-09-23T07:11:00.752Z,92.60
2022-09-23T07:13:28.193Z,92.60
2022-09-23T07:15:58.325Z,96.70
2022-09-23T07:18:26.267Z,91.60
2022-09-23T07:20:53.667Z,91.70
2022-09-23T07:23:20.850Z,91.70
2022-09-23T07:25:49.357Z,91.60
2022-09-23T07:28:16.043Z,91.40
2022-09-23T07:30:55.031Z,91.50
2022-09-23T07:33:32.165Z,91.30
2022-09-23T07:35:59.466Z,91.00
2022-09-23T07:38:30.084Z,90.60
2022-09-23T07:41:06.349Z,90.90
2022-09-23T07:43:33.435Z,90.20
2022-09-23T07:46:02.989Z,88.80
2022-09-23T07:48:34.095Z,88.60
2022-09-23T07:51:05.735Z,89.00
2022-09-23T07:53:33.250Z,87.70
2022-09-23T07:55:59.903Z,87.50
2022-09-23T07:58:26.675Z,85.60
2022-09-23T08:00:53.540Z,86.10
2022-09-23T08:03:20.681Z,86.50
2022-09-23T08:05:47.462Z,85.40
2022-09-23T08:08:14.208Z,83.10
2022-09-23T08:10:40.898Z,83.60
2022-09-23T08:13:07.516Z,83.20
2022-09-23T08:15:34.198Z,82.60
2022-09-23T08:18:01.415Z,83.20
2022-09-23T08:20:47.777Z,83.20
2022-09-23T08:23:16.546Z,83.60
2022-09-23T08:25:47.675Z,83.60
2022-09-23T08:28:19.051Z,83.30
2022-09-23T08:30:48.773Z,83.20
2022-09-23T08:33:19.674Z,83.50
2022-09-23T08:35:49.364Z,82.70
2022-09-23T08:38:15.967Z,82.80
2022-09-23T08:40:44.862Z,83.10
2022-09-23T08:43:29.627Z,82.90
2022-09-23T08:46:01.956Z,82.30
2022-09-23T08:48:47.536Z,82.40
2022-09-23T08:51:29.296Z,83.50
2022-09-23T08:53:56.035Z,83.70
2022-09-23T08:56:24.518Z,84.90
2022-09-23T08:59:14.825Z,84.30
2022-09-23T09:01:47.647Z,83.60
2022-09-23T09:04:14.399Z,84.20
2022-09-23T09:06:54.369Z,85.20
2022-09-23T09:09:29.341Z,85.20
2022-09-23T09:12:15.400Z,84.50
2022-09-23T09:15:12.657Z,83.60
2022-09-23T09:17:48.288Z,85.30
2022-09-23T09:20:59.367Z,85.10
2022-09-23T09:23:45.621Z,84.30
2022-09-23T09:26:19.452Z,82.60
2022-09-23T09:29:11.469Z,82.90
2022-09-23T09:31:49.540Z,83.30
2022-09-23T09:34:57.969Z,82.90
2022-09-23T09:37:42.022Z,83.80
2022-09-23T09:40:12.866Z,83.00
2022-09-23T09:42:41.506Z,83.60
2022-09-23T09:45:35.063Z,83.10
2022-09-23T09:48:17.779Z,83.10
2022-09-23T09:50:47.036Z,82.70
2022-09-23T09:53:35.660Z,81.60
2022-09-23T09:56:10.905Z,82.00
2022-09-23T09:58:40.957Z,81.20
2022-09-23T10:01:08.164Z,81.60
2022-09-23T10:03:41.324Z,81.10
2022-09-23T10:06:15.300Z,80.10
2022-09-23T10:08:48.276Z,79.90
2022-09-23T10:11:17.424Z,79.30
2022-09-23T10:14:17.466Z,80.50
2022-09-23T10:16:45.548Z,78.90
2022-09-23T10:19:25.115Z,78.00
2022-09-23T10:21:56.759Z,80.20
2022-09-23T10:24:32.731Z,79.40
2022-09-23T10:27:11.708Z,80.00
2022-09-23T10:29:50.535Z,79.50
2022-09-23T10:32:30.989Z,79.40
2022-09-23T10:35:10.545Z,78.70
2022-09-23T10:37:38.670Z,78.40
2022-09-23T10:40:48.223Z,76.80
2022-09-23T10:43:45.959Z,79.00
2022-09-23T10:46:39.325Z,76.20
2022-09-23T10:49:30.992Z,74.10
2022-09-23T10:52:16.917Z,73.40
2022-09-23T10:55:00.896Z,72.10
2022-09-23T10:57:49.283Z,73.30
2022-09-23T11:00:22.147Z,71.90
2022-09-23T11:03:17.395Z,72.70
2022-09-23T11:06:23.351Z,74.00
2022-09-23T11:09:06.438Z,75.60
2022-09-23T11:11:47.799Z,75.60
2022-09-23T11:14:33.884Z,74.70
2022-09-23T11:17:26.957Z,73.70
2022-09-23T11:20:02.732Z,74.10
2022-09-23T11:22:38.874Z,74.90
2022-09-23T11:25:17.313Z,74.80
2022-09-23T11:28:11.601Z,72.70
2022-09-23T11:30:56.446Z,71.00
2022-09-23T11:33:39.257Z,71.60
2022-09-23T11:36:29.975Z,71.70
2022-09-23T11:38:59.166Z,72.90
2022-09-23T11:41:37.089Z,73.50
2022-09-23T11:44:22.101Z,73.60
2022-09-23T11:47:16.554Z,71.90
2022-09-23T11:49:53.257Z,73.10
2022-09-23T11:52:44.908Z,74.50
2022-09-23T11:55:24.447Z,76.40
2022-09-23T11:57:59.805Z,75.60
2022-09-23T12:00:34.264Z,75.40
2022-09-23T12:03:36.117Z,75.10
2022-09-23T12:06:20.221Z,75.90
2022-09-23T12:08:48.706Z,76.40
2022-09-23T12:11:39.272Z,77.50
2022-09-23T12:14:33.540Z,77.10
2022-09-23T12:17:28.471Z,76.20
2022-09-23T12:20:18.419Z,75.80
2022-09-23T12:23:21.801Z,75.60
2022-09-23T12:25:51.520Z,74.30
2022-09-23T12:28:24.446Z,74.00
2022-09-23T12:30:56.127Z,73.90
2022-09-23T12:33:28.295Z,75.30
2022-09-23T12:36:12.163Z,75.30
2022-09-23T12:38:53.100Z,75.10
2022-09-23T12:41:24.056Z,75.30
2022-09-23T12:43:55.957Z,75.70
2022-09-23T12:46:25.623Z,74.30
2022-09-23T12:48:57.208Z,72.70
2022-09-23T12:51:25.578Z,74.40
2022-09-23T12:53:54.003Z,72.90
2022-09-23T12:56:36.672Z,73.70
2022-09-23T12:59:25.090Z,73.10
2022-09-23T13:01:52.367Z,73.50
2022-09-23T13:05:01.911Z,75.00
2022-09-23T13:07:32.052Z,74.30
2022-09-23T13:10:13.882Z,74.20
2022-09-23T13:12:43.177Z,73.40
2022-09-23T13:15:28.349Z,73.40
2022-09-23T13:18:20.703Z,73.80
2022-09-23T13:20:52.237Z,71.40
2022-09-23T13:23:31.325Z,71.30
2022-09-23T13:26:01.290Z,70.60
2022-09-23T13:28:44.510Z,72.30
2022-09-23T13:31:16.421Z,72.10
2022-09-23T13:33:48.758Z,72.70
2022-09-23T13:36:17.460Z,71.20
2022-09-23T13:38:46.452Z,70.70
2022-09-23T13:41:28.563Z,71.20
2022-09-23T13:44:00.678Z,69.90
2022-09-23T13:46:43.029Z,69.00
2022-09-23T13:49:24.366Z,70.10
2022-09-23T13:51:54.017Z,70.70
2022-09-23T13:54:36.247Z,73.20
2022-09-23T13:57:03.470Z,72.80
2022-09-23T13:59:31.381Z,70.60
2022-09-23T14:02:13.188Z,72.90
2022-09-23T14:04:40.206Z,72.30
2022-09-23T14:07:15.716Z,72.60
2022-09-23T14:09:45.965Z,71.40
2022-09-23T14:12:12.967Z,71.70
2022-09-23T14:14:41.902Z,71.40
2022-09-23T14:17:13.960Z,72.60
2022-09-23T14:19:42.933Z,71.00
2022-09-23T14:22:26.348Z,71.80
2022-09-23T14:24:55.357Z,71.40
2022-09-23T14:27:31.083Z,73.10
2022-09-23T14:29:58.300Z,73.00
2022-09-23T14:32:28.443Z,72.30
2022-09-23T14:35:00.994Z,74.00
2022-09-23T14:37:57.394Z,72.40
2022-09-23T14:40:37.237Z,73.80
2022-09-23T14:43:08.405Z,73.70
2022-09-23T14:45:40.465Z,74.40
2022-09-23T14:48:12.648Z,73.70
2022-09-23T14:50:48.417Z,73.10
2022-09-23T14:53:23.755Z,73.60
2022-09-23T14:56:06.873Z,74.20
2022-09-23T14:58:53.150Z,76.50
2022-09-23T15:01:27.767Z,74.70
2022-09-23T15:03:56.055Z,75.80
2022-09-23T15:06:23.605Z,75.00
2022-09-23T15:08:52.404Z,75.70
2022-09-23T15:11:21.211Z,75.00
2022-09-23T15:13:50.824Z,75.70
2022-09-23T15:16:26.020Z,75.50
2022-09-23T15:18:59.300Z,75.50
2022-09-23T15:21:42.454Z,75.40
2022-09-23T15:24:51.356Z,75.60
2022-09-23T15:27:59.184Z,75.90
2022-09-23T15:30:26.032Z,77.00
2022-09-23T15:32:53.517Z,78.00
2022-09-23T15:35:23.665Z,75.40
2022-09-23T15:37:51.468Z,76.90
2022-09-23T15:40:29.194Z,79.10
2022-09-23T15:42:58.461Z,79.50
2022-09-23T15:45:30.085Z,80.40
2022-09-23T15:48:00.798Z,82.20
2022-09-23T15:50:28.612Z,79.30
2022-09-23T15:52:55.204Z,81.20
2022-09-23T15:55:23.419Z,81.30
2022-09-23T15:57:50.433Z,80.60
2022-09-23T16:00:17.442Z,81.50
2022-09-23T16:02:48.966Z,81.00
2022-09-23T16:05:27.381Z,82.20
2022-09-23T16:07:54.005Z,82.70
2022-09-23T16:10:22.354Z,83.80
2022-09-23T16:12:49.624Z,84.10
2022-09-23T16:15:20.673Z,84.10
2022-09-23T16:17:47.359Z,83.90
2022-09-23T16:20:17.961Z,84.20
2022-09-23T16:23:01.885Z,84.60
2022-09-23T16:25:31.530Z,83.90
2022-09-23T16:27:58.837Z,83.90
2022-09-23T16:30:30.660Z,85.80
2022-09-23T16:32:57.574Z,87.50
2022-09-23T16:35:27.828Z,87.60
2022-09-23T16:37:54.965Z,87.50
2022-09-23T16:40:25.029Z,87.00
2022-09-23T16:42:54.853Z,86.20
2022-09-23T16:45:23.126Z,88.30
2022-09-23T16:47:51.723Z,88.30
2022-09-23T16:50:22.574Z,88.40
2022-09-23T16:52:56.772Z,88.50
2022-09-23T16:55:25.578Z,88.40
2022-09-23T16:57:53.787Z,88.80
2022-09-23T17:00:39.373Z,89.90
2022-09-23T17:03:24.810Z,89.60
2022-09-23T17:05:51.487Z,89.40
2022-09-23T17:08:18.369Z,88.90
2022-09-23T17:10:54.119Z,88.40
2022-09-23T17:13:20.799Z,89.00
2022-09-23T17:15:47.401Z,89.80
2022-09-23T17:18:17.700Z,91.10
2022-09-23T17:21:03.311Z,90.60
2022-09-23T17:23:31.605Z,89.60
2022-09-23T17:25:59.841Z,90.70
2022-09-23T17:28:26.540Z,91.00
2022-09-23T17:31:01.280Z,90.80
2022-09-23T17:33:30.515Z,91.50
2022-09-23T17:36:00.016Z,91.50
2022-09-23T17:38:29.322Z,91.90
2022-09-23T17:40:58.936Z,92.30
2022-09-23T17:43:25.785Z,92.10
2022-09-23T17:45:54.616Z,91.90
2022-09-23T17:48:22.605Z,92.00
2022-09-23T17:50:56.407Z,92.10
2022-09-23T17:53:23.597Z,92.80
2022-09-23T17:56:24.753Z,92.20
2022-09-23T17:58:52.364Z,92.90
2022-09-23T18:01:23.063Z,93.60
2022-09-23T18:03:57.777Z,91.00
2022-09-23T18:06:26.844Z,91.00
2022-09-23T18:08:53.577Z,91.30
2022-09-23T18:11:23.091Z,92.00
2022-09-23T18:13:54.714Z,92.20
2022-09-23T18:16:23.849Z,92.90
2022-09-23T18:18:55.655Z,93.80
2022-09-23T18:21:24.029Z,94.10
2022-09-23T18:23:50.792Z,93.40
2022-09-23T18:26:20.300Z,92.90
2022-09-23T18:28:47.929Z,94.20
2022-09-23T18:31:15.616Z,94.70
2022-09-23T18:33:42.441Z,94.90
2022-09-23T18:36:09.852Z,94.90
2022-09-23T18:38:36.440Z,95.50
2022-09-23T18:41:03.346Z,95.00
2022-09-23T18:43:40.042Z,94.90
2022-09-23T18:46:12.507Z,94.70
2022-09-23T18:48:58.144Z,94.60
2022-09-23T18:51:26.070Z,94.50
2022-09-23T18:53:57.436Z,94.90
2022-09-23T18:56:40.871Z,94.60
2022-09-23T18:59:11.091Z,95.40
2022-09-23T19:01:37.973Z,94.90
2022-09-23T19:04:04.972Z,94.30
2022-09-23T19:06:32.889Z,95.10
2022-09-23T19:08:59.536Z,94.60
2022-09-23T19:11:26.615Z,95.40
2022-09-23T19:13:55.409Z,95.40
2022-09-23T19:16:22.736Z,95.50
2022-09-23T19:18:50.430Z,94.80
2022-09-23T19:21:20.388Z,94.40
2022-09-23T19:23:50.096Z,95.40
2022-09-23T19:26:19.753Z,95.50
2022-09-23T19:28:51.030Z,95.90
2022-09-23T19:31:22.227Z,96.40
2022-09-23T19:34:01.085Z,96.90
2022-09-23T19:36:32.050Z,96.90
2022-09-23T19:39:03.205Z,97.20
2022-09-23T19:41:35.253Z,97.60
2022-09-23T19:44:03.067Z,97.80
2022-09-23T19:46:34.581Z,97.50
2022-09-23T19:49:01.256Z,97.70
2022-09-23T19:51:28.168Z,97.50
2022-09-23T19:53:54.827Z,97.90
2022-09-23T19:56:21.513Z,98.10
2022-09-23T19:58:55.543Z,97.90
2022-09-23T20:01:22.803Z,97.90
2022-09-23T20:03:50.170Z,97.80
2022-09-23T20:06:17.818Z,97.80
2022-09-23T20:08:45.078Z,97.80
2022-09-23T20:11:13.293Z,97.80
2022-09-23T20:13:41.389Z,98.20
2022-09-23T20:16:10.270Z,98.50
2022-09-23T20:18:38.197Z,98.90
2022-09-23T20:21:05.911Z,99.00
2022-09-23T20:23:32.623Z,99.00
2022-09-23T20:26:18.864Z,98.80
2022-09-23T20:28:45.715Z,98.90
2022-09-23T20:31:13.109Z,98.70
2022-09-23T20:33:41.447Z,99.20
2022-09-23T20:36:13.107Z,99.00
2022-09-23T20:38:40.370Z,99.40
2022-09-23T20:41:08.202Z,99.50
2022-09-23T20:43:35.172Z,99.40
2022-09-23T20:46:03.505Z,99.30
2022-09-23T20:48:30.818Z,99.00
2022-09-23T20:51:01.812Z,99.00
2022-09-23T20:53:28.491Z,98.90
2022-09-23T20:55:56.784Z,99.20
2022-09-23T20:58:29.183Z,99.40
2022-09-23T21:01:11.760Z,98.60
2022-09-23T21:03:40.661Z,99.10
2022-09-23T21:06:08.940Z,99.50
2022-09-23T21:08:37.088Z,99.90
2022-09-23T21:11:07.925Z,99.90
2022-09-23T21:13:35.222Z,99.90
2022-09-23T21:16:05.900Z,99.90
2022-09-23T21:18:32.762Z,99.90
2022-09-23T21:21:00.161Z,99.90
2022-09-23T21:23:35.375Z,99.90
2022-09-23T21:26:09.814Z,99.90
2022-09-23T21:28:41.952Z,99.90
2022-09-23T21:31:23.476Z,99.90
2022-09-23T21:34:11.009Z,99.90
2022-09-23T21:36:39.294Z,99.90
2022-09-23T21:39:07.687Z,99.90
2022-09-23T21:41:34.814Z,99.90
2022-09-23T21:44:04.250Z,99.90
2022-09-23T21:46:33.708Z,99.90
2022-09-23T21:49:03.229Z,99.90
2022-09-23T21:51:37.410Z,99.90
2022-09-23T21:54:05.512Z,99.90
2022-09-23T21:56:37.551Z,99.90
2022-09-23T21:59:05.308Z,99.90
2022-09-23T22:01:34.939Z,99.90
2022-09-23T22:04:07.760Z,99.90
2022-09-23T22:06:37.943Z,99.90
2022-09-23T22:09:10.279Z,99.90
2022-09-23T22:12:07.529Z,99.90
2022-09-23T22:14:34.248Z,99.90
2022-09-23T22:17:03.593Z,99.90
2022-09-23T22:19:34.889Z,99.90
2022-09-23T22:22:05.765Z,99.90
2022-09-23T22:24:32.448Z,99.90
2022-09-23T22:26:59.056Z,99.90
2022-09-23T22:29:44.414Z,99.90
2022-09-23T22:32:30.796Z,99.90
2022-09-23T22:34:57.554Z,99.90
2022-09-23T22:37:30.160Z,99.90
2022-09-23T22:39:56.849Z,99.90
2022-09-23T22:42:23.965Z,99.90
2022-09-23T22:44:51.242Z,99.90
2022-09-23T22:47:19.640Z,99.90
2022-09-23T22:49:46.553Z,99.90
2022-09-23T22:52:15.806Z,99.90
2022-09-23T22:54:42.963Z,99.90
2022-09-23T22:57:10.125Z,99.90
2022-09-23T22:59:40.092Z,99.90
2022-09-23T23:02:07.961Z,99.90
2022-09-23T23:04:36.974Z,99.90
2022-09-23T23:07:04.488Z,99.90
2022-09-23T23:09:31.095Z,99.90
2022-09-23T23:11:57.677Z,99.90
2022-09-23T23:14:25.645Z,99.90
2022-09-23T23:16:52.574Z,99.90
2022-09-23T23:19:19.256Z,99.90
2022-09-23T23:21:46.308Z,99.90
2022-09-23T23:24:19.188Z,99.90
2022-09-23T23:26:46.550Z,99.90
2022-09-23T23:29:14.670Z,99.90
2022-09-23T23:31:41.419Z,99.90
2022-09-23T23:34:12.154Z,99.90
2022-09-23T23:36:39.315Z,99.90
2022-09-23T23:39:05.984Z,99.90
2022-09-23T23:41:33.045Z,99.90
2022-09-23T23:44:00.487Z,99.90
2022-09-23T23:46:29.267Z,99.90
2022-09-23T23:48:57.025Z,99.90
2022-09-23T23:51:27.761Z,99.90
2022-09-23T23:53:56.716Z,99.90
2022-09-23T23:56:24.609Z,99.90
2022-09-23T23:58:59.038Z,99.90
